sensor_id;sensor_type;location;lat;lon;timestamp;temperature;humidity
54168;DHT22;40072;50.958;3.592;2023-02-01T00:01:42;7.00;99.90
54168;DHT22;40072;50.958;3.592;2023-02-01T00:04:08;6.90;99.90
54168;DHT22;40072;50.958;3.592;2023-02-01T00:06:34;6.90;99.90
54168;DHT22;40072;50.958;3.592;2023-02-01T00:09:00;6.80;99.90
54168;DHT22;40072;50.958;3.592;2023-02-01T00:11:26;6.80;99.90
54168;DHT22;40072;50.958;3.592;2023-02-01T00:13:52;6.80;99.90
54168;DHT22;40072;50.958;3.592;2023-02-01T00:16:23;7.00;99.90
54168;DHT22;40072;50.958;3.592;2023-02-01T00:18:51;6.90;99.90
54168;DHT22;40072;50.958;3.592;2023-02-01T00:21:19;7.00;99.90
54168;DHT22;40072;50.958;3.592;2023-02-01T00:23:46;7.00;99.90
54168;DHT22;40072;50.958;3.592;2023-02-01T00:26:31;7.00;99.90
54168;DHT22;40072;50.958;3.592;2023-02-01T00:28:57;7.10;99.90
54168;DHT22;40072;50.958;3.592;2023-02-01T00:31:23;7.00;99.90
54168;DHT22;40072;50.958;3.592;2023-02-01T00:33:49;6.80;99.90
54168;DHT22;40072;50.958;3.592;2023-02-01T00:36:15;6.80;99.90
54168;DHT22;40072;50.958;3.592;2023-02-01T00:38:42;6.80;99.90
54168;DHT22;40072;50.958;3.592;2023-02-01T00:41:11;6.80;99.90
54168;DHT22;40072;50.958;3.592;2023-02-01T00:43:37;6.70;99.90
54168;DHT22;40072;50.958;3.592;2023-02-01T00:46:03;6.70;99.90
54168;DHT22;40072;50.958;3.592;2023-02-01T00:48:29;6.60;99.90
54168;DHT22;40072;50.958;3.592;2023-02-01T00:51:09;6.50;99.90
54168;DHT22;40072;50.958;3.592;2023-02-01T00:53:35;6.50;99.90
54168;DHT22;40072;50.958;3.592;2023-02-01T00:56:01;6.50;99.90
54168;DHT22;40072;50.958;3.592;2023-02-01T00:58:27;6.40;99.90
54168;DHT22;40072;50.958;3.592;2023-02-01T01:03:37;6.20;99.90
54168;DHT22;40072;50.958;3.592;2023-02-01T01:06:06;6.30;99.90
54168;DHT22;40072;50.958;3.592;2023-02-01T01:08:33;6.30;99.90
54168;DHT22;40072;50.958;3.592;2023-02-01T01:10:58;6.30;99.90
54168;DHT22;40072;50.958;3.592;2023-02-01T01:18:35;6.00;99.90
54168;DHT22;40072;50.958;3.592;2023-02-01T01:21:02;6.00;99.90
54168;DHT22;40072;50.958;3.592;2023-02-01T01:23:28;6.00;99.90
54168;DHT22;40072;50.958;3.592;2023-02-01T01:25:54;5.90;99.90
54168;DHT22;40072;50.958;3.592;2023-02-01T01:28:20;5.80;99.90
54168;DHT22;40072;50.958;3.592;2023-02-01T01:30:46;5.90;99.90
54168;DHT22;40072;50.958;3.592;2023-02-01T01:33:11;5.80;99.90
54168;DHT22;40072;50.958;3.592;2023-02-01T01:35:37;5.80;99.90
54168;DHT22;40072;50.958;3.592;2023-02-01T01:38:03;5.80;99.90
54168;DHT22;40072;50.958;3.592;2023-02-01T01:40:30;6.00;99.90
54168;DHT22;40072;50.958;3.592;2023-02-01T01:42:56;6.10;99.90
54168;DHT22;40072;50.958;3.592;2023-02-01T01:45:32;6.10;99.90
54168;DHT22;40072;50.958;3.592;2023-02-01T01:48:17;6.10;99.90
54168;DHT22;40072;50.958;3.592;2023-02-01T01:50:51;6.20;99.90
54168;DHT22;40072;50.958;3.592;2023-02-01T01:53:24;6.20;99.90
54168;DHT22;40072;50.958;3.592;2023-02-01T01:55:53;6.20;99.90
54168;DHT22;40072;50.958;3.592;2023-02-01T01:58:22;6.20;99.90
54168;DHT22;40072;50.958;3.592;2023-02-01T02:00:48;6.30;99.90
54168;DHT22;40072;50.958;3.592;2023-02-01T02:03:27;6.10;99.90
54168;DHT22;40072;50.958;3.592;2023-02-01T02:05:57;6.10;99.90
54168;DHT22;40072;50.958;3.592;2023-02-01T02:08:25;6.10;99.90
54168;DHT22;40072;50.958;3.592;2023-02-01T02:10:52;6.10;99.90
54168;DHT22;40072;50.958;3.592;2023-02-01T02:13:39;6.10;99.90
54168;DHT22;40072;50.958;3.592;2023-02-01T02:27:32;5.80;99.90
54168;DHT22;40072;50.958;3.592;2023-02-01T02:35:53;5.80;99.90
54168;DHT22;40072;50.958;3.592;2023-02-01T02:44:49;6.00;99.90
54168;DHT22;40072;50.958;3.592;2023-02-01T02:47:48;5.90;99.90
54168;DHT22;40072;50.958;3.592;2023-02-01T02:50:35;5.90;99.90
54168;DHT22;40072;50.958;3.592;2023-02-01T02:53:27;5.90;99.90
54168;DHT22;40072;50.958;3.592;2023-02-01T02:56:12;5.90;99.90
54168;DHT22;40072;50.958;3.592;2023-02-01T02:58:58;5.90;99.90
54168;DHT22;40072;50.958;3.592;2023-02-01T03:01:43;5.90;99.90
54168;DHT22;40072;50.958;3.592;2023-02-01T03:04:27;5.80;99.90
54168;DHT22;40072;50.958;3.592;2023-02-01T03:06:53;5.80;99.90
54168;DHT22;40072;50.958;3.592;2023-02-01T03:09:33;5.80;99.90
54168;DHT22;40072;50.958;3.592;2023-02-01T03:12:05;5.90;99.90
54168;DHT22;40072;50.958;3.592;2023-02-01T03:14:56;5.90;99.90
54168;DHT22;40072;50.958;3.592;2023-02-01T03:17:29;5.90;99.90
54168;DHT22;40072;50.958;3.592;2023-02-01T03:19:58;5.90;99.90
54168;DHT22;40072;50.958;3.592;2023-02-01T03:22:27;5.90;99.90
54168;DHT22;40072;50.958;3.592;2023-02-01T03:27:35;5.70;99.90
54168;DHT22;40072;50.958;3.592;2023-02-01T03:30:24;5.80;99.90
54168;DHT22;40072;50.958;3.592;2023-02-01T03:32:58;5.80;99.90
54168;DHT22;40072;50.958;3.592;2023-02-01T03:35:36;5.80;99.90
54168;DHT22;40072;50.958;3.592;2023-02-01T03:38:30;5.80;99.90
54168;DHT22;40072;50.958;3.592;2023-02-01T03:43:53;5.70;99.90
54168;DHT22;40072;50.958;3.592;2023-02-01T03:46:30;5.70;99.90
54168;DHT22;40072;50.958;3.592;2023-02-01T03:49:04;5.70;99.90
54168;DHT22;40072;50.958;3.592;2023-02-01T03:51:32;5.60;99.90
54168;DHT22;40072;50.958;3.592;2023-02-01T03:53:59;5.60;99.90
54168;DHT22;40072;50.958;3.592;2023-02-01T03:56:27;5.60;99.90
54168;DHT22;40072;50.958;3.592;2023-02-01T03:58:55;5.60;99.90
54168;DHT22;40072;50.958;3.592;2023-02-01T04:01:25;5.60;99.90
54168;DHT22;40072;50.958;3.592;2023-02-01T04:03:52;5.50;99.90
54168;DHT22;40072;50.958;3.592;2023-02-01T04:06:17;5.60;99.90
54168;DHT22;40072;50.958;3.592;2023-02-01T04:08:43;5.60;99.90
54168;DHT22;40072;50.958;3.592;2023-02-01T04:11:08;5.60;99.90
54168;DHT22;40072;50.958;3.592;2023-02-01T04:13:34;5.50;99.90
54168;DHT22;40072;50.958;3.592;2023-02-01T04:16:00;5.50;99.90
54168;DHT22;40072;50.958;3.592;2023-02-01T04:18:26;5.40;99.90
54168;DHT22;40072;50.958;3.592;2023-02-01T04:20:51;5.40;99.90
54168;DHT22;40072;50.958;3.592;2023-02-01T04:23:17;5.40;99.90
54168;DHT22;40072;50.958;3.592;2023-02-01T04:25:43;5.30;99.90
54168;DHT22;40072;50.958;3.592;2023-02-01T04:28:08;5.30;99.90
54168;DHT22;40072;50.958;3.592;2023-02-01T04:30:34;5.30;99.90
54168;DHT22;40072;50.958;3.592;2023-02-01T04:33:00;5.30;99.90
54168;DHT22;40072;50.958;3.592;2023-02-01T04:35:26;5.30;99.90
54168;DHT22;40072;50.958;3.592;2023-02-01T04:37:51;5.30;99.90
54168;DHT22;40072;50.958;3.592;2023-02-01T04:40:17;5.40;99.90
54168;DHT22;40072;50.958;3.592;2023-02-01T04:42:43;5.30;99.90
54168;DHT22;40072;50.958;3.592;2023-02-01T04:45:09;5.40;99.90
54168;DHT22;40072;50.958;3.592;2023-02-01T04:47:35;5.30;99.90
54168;DHT22;40072;50.958;3.592;2023-02-01T04:50:00;5.20;99.90
54168;DHT22;40072;50.958;3.592;2023-02-01T04:52:26;5.20;99.90
54168;DHT22;40072;50.958;3.592;2023-02-01T04:54:52;5.20;99.90
54168;DHT22;40072;50.958;3.592;2023-02-01T04:57:19;5.20;99.90
54168;DHT22;40072;50.958;3.592;2023-02-01T04:59:45;5.20;99.90
54168;DHT22;40072;50.958;3.592;2023-02-01T05:02:11;5.20;99.90
54168;DHT22;40072;50.958;3.592;2023-02-01T05:04:36;5.20;99.90
54168;DHT22;40072;50.958;3.592;2023-02-01T05:07:02;5.20;99.90
54168;DHT22;40072;50.958;3.592;2023-02-01T05:09:28;5.10;99.90
54168;DHT22;40072;50.958;3.592;2023-02-01T05:11:53;5.10;99.90
54168;DHT22;40072;50.958;3.592;2023-02-01T05:14:37;5.10;99.90
54168;DHT22;40072;50.958;3.592;2023-02-01T05:17:03;5.10;99.90
54168;DHT22;40072;50.958;3.592;2023-02-01T05:19:29;5.10;99.90
54168;DHT22;40072;50.958;3.592;2023-02-01T05:21:54;5.10;99.90
54168;DHT22;40072;50.958;3.592;2023-02-01T05:24:20;5.20;99.90
54168;DHT22;40072;50.958;3.592;2023-02-01T05:26:47;5.10;99.90
54168;DHT22;40072;50.958;3.592;2023-02-01T05:29:13;5.10;99.90
54168;DHT22;40072;50.958;3.592;2023-02-01T05:31:40;5.10;99.90
54168;DHT22;40072;50.958;3.592;2023-02-01T05:34:06;5.10;99.90
54168;DHT22;40072;50.958;3.592;2023-02-01T05:36:32;5.20;99.90
54168;DHT22;40072;50.958;3.592;2023-02-01T05:38:58;5.10;99.90
54168;DHT22;40072;50.958;3.592;2023-02-01T05:41:24;5.10;99.90
54168;DHT22;40072;50.958;3.592;2023-02-01T05:43:49;5.10;99.90
54168;DHT22;40072;50.958;3.592;2023-02-01T05:46:15;5.10;99.90
54168;DHT22;40072;50.958;3.592;2023-02-01T05:48:41;5.00;99.90
54168;DHT22;40072;50.958;3.592;2023-02-01T05:51:08;5.10;99.90
54168;DHT22;40072;50.958;3.592;2023-02-01T05:53:33;5.00;99.90
54168;DHT22;40072;50.958;3.592;2023-02-01T05:55:59;4.90;99.90
54168;DHT22;40072;50.958;3.592;2023-02-01T05:58:25;4.80;99.90
54168;DHT22;40072;50.958;3.592;2023-02-01T06:00:51;4.80;99.90
54168;DHT22;40072;50.958;3.592;2023-02-01T06:03:16;4.80;99.90
54168;DHT22;40072;50.958;3.592;2023-02-01T06:05:46;4.80;99.90
54168;DHT22;40072;50.958;3.592;2023-02-01T06:08:13;4.80;99.90
54168;DHT22;40072;50.958;3.592;2023-02-01T06:10:39;4.70;99.90
54168;DHT22;40072;50.958;3.592;2023-02-01T06:13:04;4.80;99.90
54168;DHT22;40072;50.958;3.592;2023-02-01T06:15:31;4.80;99.90
54168;DHT22;40072;50.958;3.592;2023-02-01T06:17:57;4.80;99.90
54168;DHT22;40072;50.958;3.592;2023-02-01T06:20:23;4.80;99.90
54168;DHT22;40072;50.958;3.592;2023-02-01T06:22:49;4.80;99.90
54168;DHT22;40072;50.958;3.592;2023-02-01T06:25:14;4.80;99.90
54168;DHT22;40072;50.958;3.592;2023-02-01T06:27:42;4.80;99.90
54168;DHT22;40072;50.958;3.592;2023-02-01T06:30:08;4.80;99.90
54168;DHT22;40072;50.958;3.592;2023-02-01T06:32:34;4.80;99.90
54168;DHT22;40072;50.958;3.592;2023-02-01T06:34:59;4.80;99.90
54168;DHT22;40072;50.958;3.592;2023-02-01T06:37:26;4.70;99.90
54168;DHT22;40072;50.958;3.592;2023-02-01T06:39:53;4.70;99.90
54168;DHT22;40072;50.958;3.592;2023-02-01T06:42:18;4.60;99.90
54168;DHT22;40072;50.958;3.592;2023-02-01T06:44:44;4.60;99.90
54168;DHT22;40072;50.958;3.592;2023-02-01T06:47:09;4.50;99.90
54168;DHT22;40072;50.958;3.592;2023-02-01T06:49:35;4.60;99.90
54168;DHT22;40072;50.958;3.592;2023-02-01T06:52:01;4.60;99.90
54168;DHT22;40072;50.958;3.592;2023-02-01T06:54:27;4.60;99.90
54168;DHT22;40072;50.958;3.592;2023-02-01T06:56:53;4.60;99.90
54168;DHT22;40072;50.958;3.592;2023-02-01T06:59:19;4.60;99.90
54168;DHT22;40072;50.958;3.592;2023-02-01T07:01:45;4.60;99.90
54168;DHT22;40072;50.958;3.592;2023-02-01T07:04:11;4.60;99.90
54168;DHT22;40072;50.958;3.592;2023-02-01T07:06:38;4.60;99.90
54168;DHT22;40072;50.958;3.592;2023-02-01T07:09:03;4.70;99.90
54168;DHT22;40072;50.958;3.592;2023-02-01T07:11:29;4.70;99.90
54168;DHT22;40072;50.958;3.592;2023-02-01T07:13:56;4.70;99.90
54168;DHT22;40072;50.958;3.592;2023-02-01T07:16:21;4.70;99.90
54168;DHT22;40072;50.958;3.592;2023-02-01T07:18:50;4.80;99.90
54168;DHT22;40072;50.958;3.592;2023-02-01T07:21:16;4.80;99.90
54168;DHT22;40072;50.958;3.592;2023-02-01T07:23:42;4.80;99.90
54168;DHT22;40072;50.958;3.592;2023-02-01T07:26:10;4.80;99.90
54168;DHT22;40072;50.958;3.592;2023-02-01T07:28:38;4.80;99.90
54168;DHT22;40072;50.958;3.592;2023-02-01T07:31:06;4.80;99.90
54168;DHT22;40072;50.958;3.592;2023-02-01T07:33:32;4.90;99.90
54168;DHT22;40072;50.958;3.592;2023-02-01T07:36:01;4.90;99.90
54168;DHT22;40072;50.958;3.592;2023-02-01T07:38:27;5.00;99.90
54168;DHT22;40072;50.958;3.592;2023-02-01T07:41:02;5.10;99.90
54168;DHT22;40072;50.958;3.592;2023-02-01T07:43:28;5.20;99.90
54168;DHT22;40072;50.958;3.592;2023-02-01T07:45:55;5.30;99.90
54168;DHT22;40072;50.958;3.592;2023-02-01T07:48:22;5.40;99.90
54168;DHT22;40072;50.958;3.592;2023-02-01T07:50:48;5.40;99.90
54168;DHT22;40072;50.958;3.592;2023-02-01T07:53:14;5.60;99.90
54168;DHT22;40072;50.958;3.592;2023-02-01T07:55:40;5.60;99.90
54168;DHT22;40072;50.958;3.592;2023-02-01T07:58:06;5.70;99.90
54168;DHT22;40072;50.958;3.592;2023-02-01T08:00:32;5.80;99.90
54168;DHT22;40072;50.958;3.592;2023-02-01T08:03:16;6.00;99.90
54168;DHT22;40072;50.958;3.592;2023-02-01T08:05:42;6.20;99.90
54168;DHT22;40072;50.958;3.592;2023-02-01T08:08:07;6.50;99.90
54168;DHT22;40072;50.958;3.592;2023-02-01T08:10:33;6.70;99.90
54168;DHT22;40072;50.958;3.592;2023-02-01T08:13:01;6.50;99.90
54168;DHT22;40072;50.958;3.592;2023-02-01T08:15:28;6.40;99.90
54168;DHT22;40072;50.958;3.592;2023-02-01T08:17:54;6.20;99.90
54168;DHT22;40072;50.958;3.592;2023-02-01T08:20:21;6.20;99.90
54168;DHT22;40072;50.958;3.592;2023-02-01T08:22:49;6.20;99.90
54168;DHT22;40072;50.958;3.592;2023-02-01T08:25:14;6.10;99.90
54168;DHT22;40072;50.958;3.592;2023-02-01T08:27:40;6.10;99.90
54168;DHT22;40072;50.958;3.592;2023-02-01T08:30:07;6.30;99.90
54168;DHT22;40072;50.958;3.592;2023-02-01T08:32:33;6.30;99.90
54168;DHT22;40072;50.958;3.592;2023-02-01T08:34:59;6.40;99.90
54168;DHT22;40072;50.958;3.592;2023-02-01T08:37:25;6.50;99.90
54168;DHT22;40072;50.958;3.592;2023-02-01T08:39:50;6.70;99.90
54168;DHT22;40072;50.958;3.592;2023-02-01T08:42:17;6.70;99.90
54168;DHT22;40072;50.958;3.592;2023-02-01T08:45:02;6.70;99.90
54168;DHT22;40072;50.958;3.592;2023-02-01T08:47:29;6.90;99.90
54168;DHT22;40072;50.958;3.592;2023-02-01T08:49:55;7.00;99.90
54168;DHT22;40072;50.958;3.592;2023-02-01T08:52:21;7.00;99.90
54168;DHT22;40072;50.958;3.592;2023-02-01T08:54:46;7.00;99.90
54168;DHT22;40072;50.958;3.592;2023-02-01T08:57:12;7.10;99.90
54168;DHT22;40072;50.958;3.592;2023-02-01T08:59:38;7.40;99.90
54168;DHT22;40072;50.958;3.592;2023-02-01T09:02:04;7.80;99.90
54168;DHT22;40072;50.958;3.592;2023-02-01T09:04:30;8.20;99.90
54168;DHT22;40072;50.958;3.592;2023-02-01T09:06:56;8.40;99.90
54168;DHT22;40072;50.958;3.592;2023-02-01T09:09:22;8.50;99.90
54168;DHT22;40072;50.958;3.592;2023-02-01T09:11:48;8.70;99.90
54168;DHT22;40072;50.958;3.592;2023-02-01T09:14:16;9.00;99.90
54168;DHT22;40072;50.958;3.592;2023-02-01T09:16:41;9.50;99.90
54168;DHT22;40072;50.958;3.592;2023-02-01T09:19:07;9.80;99.90
54168;DHT22;40072;50.958;3.592;2023-02-01T09:21:33;9.90;99.90
54168;DHT22;40072;50.958;3.592;2023-02-01T09:23:59;9.90;99.90
54168;DHT22;40072;50.958;3.592;2023-02-01T09:26:25;10.50;99.90
54168;DHT22;40072;50.958;3.592;2023-02-01T09:28:51;10.70;99.90
54168;DHT22;40072;50.958;3.592;2023-02-01T09:31:16;11.00;99.90
54168;DHT22;40072;50.958;3.592;2023-02-01T09:33:42;10.30;99.90
54168;DHT22;40072;50.958;3.592;2023-02-01T09:36:08;10.40;99.90
54168;DHT22;40072;50.958;3.592;2023-02-01T09:38:33;10.50;99.90
54168;DHT22;40072;50.958;3.592;2023-02-01T09:40:59;11.10;99.90
54168;DHT22;40072;50.958;3.592;2023-02-01T09:43:50;11.40;99.90
54168;DHT22;40072;50.958;3.592;2023-02-01T09:46:24;11.90;99.90
54168;DHT22;40072;50.958;3.592;2023-02-01T09:48:54;11.70;99.90
54168;DHT22;40072;50.958;3.592;2023-02-01T09:51:27;11.60;99.90
54168;DHT22;40072;50.958;3.592;2023-02-01T09:54:05;11.50;99.90
54168;DHT22;40072;50.958;3.592;2023-02-01T09:56:54;11.70;99.90
54168;DHT22;40072;50.958;3.592;2023-02-01T09:59:39;11.90;99.90
54168;DHT22;40072;50.958;3.592;2023-02-01T10:02:14;11.80;99.90
54168;DHT22;40072;50.958;3.592;2023-02-01T10:04:41;11.00;99.90
54168;DHT22;40072;50.958;3.592;2023-02-01T10:16:16;11.20;99.90
54168;DHT22;40072;50.958;3.592;2023-02-01T10:24:46;11.10;99.90
54168;DHT22;40072;50.958;3.592;2023-02-01T10:27:21;10.90;99.90
54168;DHT22;40072;50.958;3.592;2023-02-01T10:29:59;10.80;99.90
54168;DHT22;40072;50.958;3.592;2023-02-01T10:32:33;11.20;99.90
54168;DHT22;40072;50.958;3.592;2023-02-01T10:37:35;11.20;99.90
54168;DHT22;40072;50.958;3.592;2023-02-01T10:40:22;10.70;99.90
54168;DHT22;40072;50.958;3.592;2023-02-01T10:42:56;10.60;99.90
54168;DHT22;40072;50.958;3.592;2023-02-01T10:45:26;10.50;99.90
54168;DHT22;40072;50.958;3.592;2023-02-01T10:47:54;11.30;99.90
54168;DHT22;40072;50.958;3.592;2023-02-01T10:50:34;12.00;99.90
54168;DHT22;40072;50.958;3.592;2023-02-01T10:53:11;12.80;99.90
54168;DHT22;40072;50.958;3.592;2023-02-01T10:55:50;12.70;99.90
54168;DHT22;40072;50.958;3.592;2023-02-01T10:58:26;12.60;99.90
54168;DHT22;40072;50.958;3.592;2023-02-01T11:00:56;12.90;99.90
54168;DHT22;40072;50.958;3.592;2023-02-01T11:05:57;12.70;99.90
54168;DHT22;40072;50.958;3.592;2023-02-01T11:08:23;13.40;99.90
54168;DHT22;40072;50.958;3.592;2023-02-01T11:11:00;13.80;98.50
54168;DHT22;40072;50.958;3.592;2023-02-01T11:13:38;13.10;99.10
54168;DHT22;40072;50.958;3.592;2023-02-01T11:16:04;13.40;99.20
54168;DHT22;40072;50.958;3.592;2023-02-01T11:18:35;14.00;97.70
54168;DHT22;40072;50.958;3.592;2023-02-01T11:21:01;13.50;98.60
54168;DHT22;40072;50.958;3.592;2023-02-01T11:23:29;13.70;97.80
54168;DHT22;40072;50.958;3.592;2023-02-01T11:25:59;13.10;99.10
54168;DHT22;40072;50.958;3.592;2023-02-01T11:28:31;12.80;99.60
54168;DHT22;40072;50.958;3.592;2023-02-01T11:31:00;13.30;98.00
54168;DHT22;40072;50.958;3.592;2023-02-01T11:33:35;13.00;98.50
54168;DHT22;40072;50.958;3.592;2023-02-01T11:36:07;12.60;99.10
54168;DHT22;40072;50.958;3.592;2023-02-01T11:38:34;12.00;99.90
54168;DHT22;40072;50.958;3.592;2023-02-01T11:41:12;11.90;99.90
54168;DHT22;40072;50.958;3.592;2023-02-01T11:43:51;11.80;99.90
54168;DHT22;40072;50.958;3.592;2023-02-01T11:46:18;12.10;99.90
54168;DHT22;40072;50.958;3.592;2023-02-01T11:48:51;12.00;99.90
54168;DHT22;40072;50.958;3.592;2023-02-01T11:54:41;11.30;99.90
54168;DHT22;40072;50.958;3.592;2023-02-01T12:16:53;10.50;99.90
54168;DHT22;40072;50.958;3.592;2023-02-01T12:19:23;10.50;99.90
54168;DHT22;40072;50.958;3.592;2023-02-01T12:30:19;10.90;99.90
54168;DHT22;40072;50.958;3.592;2023-02-01T12:50:20;11.80;99.90
54168;DHT22;40072;50.958;3.592;2023-02-01T12:52:26;11.70;99.90
54168;DHT22;40072;50.958;3.592;2023-02-01T12:57:45;11.50;99.90
54168;DHT22;40072;50.958;3.592;2023-02-01T13:00:16;11.80;99.90
54168;DHT22;40072;50.958;3.592;2023-02-01T13:05:22;12.50;99.90
54168;DHT22;40072;50.958;3.592;2023-02-01T13:07:55;12.90;99.40
54168;DHT22;40072;50.958;3.592;2023-02-01T13:10:38;13.40;99.00
54168;DHT22;40072;50.958;3.592;2023-02-01T13:18:36;14.70;95.30
54168;DHT22;40072;50.958;3.592;2023-02-01T13:21:10;13.50;96.60
54168;DHT22;40072;50.958;3.592;2023-02-01T13:23:40;13.30;97.60
54168;DHT22;40072;50.958;3.592;2023-02-01T13:26:06;13.30;97.60
54168;DHT22;40072;50.958;3.592;2023-02-01T13:34:32;12.40;98.90
54168;DHT22;40072;50.958;3.592;2023-02-01T13:44:48;12.10;99.90
54168;DHT22;40072;50.958;3.592;2023-02-01T13:47:27;12.30;99.90
54168;DHT22;40072;50.958;3.592;2023-02-01T13:49:55;12.70;99.40
54168;DHT22;40072;50.958;3.592;2023-02-01T13:52:37;12.80;99.10
54168;DHT22;40072;50.958;3.592;2023-02-01T13:55:33;13.50;98.60
54168;DHT22;40072;50.958;3.592;2023-02-01T13:58:10;13.20;98.60
54168;DHT22;40072;50.958;3.592;2023-02-01T14:00:40;13.60;98.40
54168;DHT22;40072;50.958;3.592;2023-02-01T14:03:08;14.00;97.70
54168;DHT22;40072;50.958;3.592;2023-02-01T14:10:49;12.90;99.50
54168;DHT22;40072;50.958;3.592;2023-02-01T14:13:29;12.30;99.90
54168;DHT22;40072;50.958;3.592;2023-02-01T14:21:22;11.00;99.90
54168;DHT22;40072;50.958;3.592;2023-02-01T15:01:21;9.90;99.90
54168;DHT22;40072;50.958;3.592;2023-02-01T15:03:52;10.00;99.90
54168;DHT22;40072;50.958;3.592;2023-02-01T15:11:55;9.80;99.90
54168;DHT22;40072;50.958;3.592;2023-02-01T15:14:21;9.70;99.90
54168;DHT22;40072;50.958;3.592;2023-02-01T15:16:46;9.70;99.90
54168;DHT22;40072;50.958;3.592;2023-02-01T15:19:20;9.70;99.90
54168;DHT22;40072;50.958;3.592;2023-02-01T15:21:52;9.60;99.90
54168;DHT22;40072;50.958;3.592;2023-02-01T15:24:24;9.60;99.90
54168;DHT22;40072;50.958;3.592;2023-02-01T15:26:51;9.60;99.90
54168;DHT22;40072;50.958;3.592;2023-02-01T15:29:19;9.50;99.90
54168;DHT22;40072;50.958;3.592;2023-02-01T15:31:50;9.50;99.90
54168;DHT22;40072;50.958;3.592;2023-02-01T15:34:17;9.40;99.90
54168;DHT22;40072;50.958;3.592;2023-02-01T15:36:44;9.40;99.90
54168;DHT22;40072;50.958;3.592;2023-02-01T15:41:47;9.30;99.90
54168;DHT22;40072;50.958;3.592;2023-02-01T15:44:28;9.30;99.90
54168;DHT22;40072;50.958;3.592;2023-02-01T15:46:54;9.20;99.90
54168;DHT22;40072;50.958;3.592;2023-02-01T15:49:23;9.20;99.90
54168;DHT22;40072;50.958;3.592;2023-02-01T15:51:50;9.20;99.90
54168;DHT22;40072;50.958;3.592;2023-02-01T15:54:31;9.10;99.90
54168;DHT22;40072;50.958;3.592;2023-02-01T15:56:59;9.10;99.90
54168;DHT22;40072;50.958;3.592;2023-02-01T15:59:31;9.10;99.90
54168;DHT22;40072;50.958;3.592;2023-02-01T16:01:58;9.10;99.90
54168;DHT22;40072;50.958;3.592;2023-02-01T16:04:26;9.10;99.90
54168;DHT22;40072;50.958;3.592;2023-02-01T16:07:00;9.10;99.90
54168;DHT22;40072;50.958;3.592;2023-02-01T16:09:46;9.10;99.90
54168;DHT22;40072;50.958;3.592;2023-02-01T16:15:08;9.00;99.90
54168;DHT22;40072;50.958;3.592;2023-02-01T16:17:34;9.00;99.90
54168;DHT22;40072;50.958;3.592;2023-02-01T16:20:00;9.00;99.90
54168;DHT22;40072;50.958;3.592;2023-02-01T16:22:26;9.00;99.90
54168;DHT22;40072;50.958;3.592;2023-02-01T16:24:52;9.00;99.90
54168;DHT22;40072;50.958;3.592;2023-02-01T16:27:17;9.00;99.90
54168;DHT22;40072;50.958;3.592;2023-02-01T16:29:43;8.90;99.90
54168;DHT22;40072;50.958;3.592;2023-02-01T16:32:18;8.90;99.90
54168;DHT22;40072;50.958;3.592;2023-02-01T16:34:46;8.80;99.90
54168;DHT22;40072;50.958;3.592;2023-02-01T16:37:21;8.90;99.90
54168;DHT22;40072;50.958;3.592;2023-02-01T16:39:47;8.90;99.90
54168;DHT22;40072;50.958;3.592;2023-02-01T16:42:14;8.90;99.90
54168;DHT22;40072;50.958;3.592;2023-02-01T16:44:40;8.80;99.90
54168;DHT22;40072;50.958;3.592;2023-02-01T16:47:17;8.80;99.90
54168;DHT22;40072;50.958;3.592;2023-02-01T16:49:44;8.80;99.90
54168;DHT22;40072;50.958;3.592;2023-02-01T16:52:21;8.80;99.90
54168;DHT22;40072;50.958;3.592;2023-02-01T16:54:48;8.70;99.90
54168;DHT22;40072;50.958;3.592;2023-02-01T16:57:16;8.70;99.90
54168;DHT22;40072;50.958;3.592;2023-02-01T16:59:42;8.70;99.90
54168;DHT22;40072;50.958;3.592;2023-02-01T17:02:14;8.70;99.90
54168;DHT22;40072;50.958;3.592;2023-02-01T17:04:41;8.70;99.90
54168;DHT22;40072;50.958;3.592;2023-02-01T17:07:10;8.80;99.90
54168;DHT22;40072;50.958;3.592;2023-02-01T17:09:37;8.80;99.90
54168;DHT22;40072;50.958;3.592;2023-02-01T17:12:04;8.80;99.90
54168;DHT22;40072;50.958;3.592;2023-02-01T17:14:36;8.80;99.90
54168;DHT22;40072;50.958;3.592;2023-02-01T17:17:04;8.70;99.90
54168;DHT22;40072;50.958;3.592;2023-02-01T17:19:30;8.80;99.90
54168;DHT22;40072;50.958;3.592;2023-02-01T17:21:57;8.80;99.90
54168;DHT22;40072;50.958;3.592;2023-02-01T17:24:27;8.80;99.90
54168;DHT22;40072;50.958;3.592;2023-02-01T17:26:53;8.70;99.90
54168;DHT22;40072;50.958;3.592;2023-02-01T17:29:19;8.70;99.90
54168;DHT22;40072;50.958;3.592;2023-02-01T17:31:48;8.80;99.90
54168;DHT22;40072;50.958;3.592;2023-02-01T17:34:15;8.70;99.90
54168;DHT22;40072;50.958;3.592;2023-02-01T17:36:42;8.70;99.90
54168;DHT22;40072;50.958;3.592;2023-02-01T17:39:09;8.60;99.90
54168;DHT22;40072;50.958;3.592;2023-02-01T17:41:36;8.70;99.90
54168;DHT22;40072;50.958;3.592;2023-02-01T17:44:03;8.60;99.90
54168;DHT22;40072;50.958;3.592;2023-02-01T17:46:30;8.60;99.90
54168;DHT22;40072;50.958;3.592;2023-02-01T17:48:56;8.60;99.90
54168;DHT22;40072;50.958;3.592;2023-02-01T17:51:25;8.60;99.90
54168;DHT22;40072;50.958;3.592;2023-02-01T17:53:55;8.60;99.90
54168;DHT22;40072;50.958;3.592;2023-02-01T17:56:22;8.60;99.90
54168;DHT22;40072;50.958;3.592;2023-02-01T17:58:49;8.60;99.90
54168;DHT22;40072;50.958;3.592;2023-02-01T18:01:18;8.60;99.90
54168;DHT22;40072;50.958;3.592;2023-02-01T18:03:44;8.60;99.90
54168;DHT22;40072;50.958;3.592;2023-02-01T18:06:33;8.60;99.90
54168;DHT22;40072;50.958;3.592;2023-02-01T18:08:59;8.60;99.90
54168;DHT22;40072;50.958;3.592;2023-02-01T18:11:24;8.60;99.90
54168;DHT22;40072;50.958;3.592;2023-02-01T18:13:52;8.60;99.90
54168;DHT22;40072;50.958;3.592;2023-02-01T18:16:26;8.60;99.90
54168;DHT22;40072;50.958;3.592;2023-02-01T18:18:52;8.60;99.90
54168;DHT22;40072;50.958;3.592;2023-02-01T18:21:20;8.60;99.90
54168;DHT22;40072;50.958;3.592;2023-02-01T18:23:46;8.60;99.90
54168;DHT22;40072;50.958;3.592;2023-02-01T18:26:14;8.60;99.90
54168;DHT22;40072;50.958;3.592;2023-02-01T18:28:41;8.60;99.90
54168;DHT22;40072;50.958;3.592;2023-02-01T18:31:11;8.60;99.90
54168;DHT22;40072;50.958;3.592;2023-02-01T18:33:41;8.60;99.90
54168;DHT22;40072;50.958;3.592;2023-02-01T18:36:11;8.70;99.90
54168;DHT22;40072;50.958;3.592;2023-02-01T18:38:37;8.60;99.90
54168;DHT22;40072;50.958;3.592;2023-02-01T18:41:03;8.60;99.90
54168;DHT22;40072;50.958;3.592;2023-02-01T18:43:29;8.70;99.90
54168;DHT22;40072;50.958;3.592;2023-02-01T18:45:55;8.70;99.90
54168;DHT22;40072;50.958;3.592;2023-02-01T18:48:21;8.60;99.90
54168;DHT22;40072;50.958;3.592;2023-02-01T18:50:47;8.60;99.90
54168;DHT22;40072;50.958;3.592;2023-02-01T18:53:18;8.60;99.90
54168;DHT22;40072;50.958;3.592;2023-02-01T18:55:48;8.60;99.90
54168;DHT22;40072;50.958;3.592;2023-02-01T18:58:15;8.70;99.90
54168;DHT22;40072;50.958;3.592;2023-02-01T19:00:42;8.60;99.90
54168;DHT22;40072;50.958;3.592;2023-02-01T19:03:13;8.60;99.90
54168;DHT22;40072;50.958;3.592;2023-02-01T19:05:40;8.60;99.90